Zielona Gora-Babimost Airport Babimost PL
ICAO: EPZG
IATA: IEG
Category: Medium
Scheduled Services: Yes

Elevation: 194 ft
TransAlt. 6500 ft.

Airport Communications:
TWR:118.75

EPZG Zoom In..

If you have problems with the map follow the link
https://www.worldairports.se/pages/airport.php?
ICAO=EPZG

Runways:

(A) RW 06 length 8202 ft width 197 ft
---- / hdg 62

(B) RW 24 length 8202 ft width 197 ft
---- / hdg 242

Location; EPZG
Day. 05 / Time. 15.00 Zulu
* QNH: 1019
* Temperature: 02° c. 35.6°f.
* Wind from: 180° Speed 06 kn.
Dewpoint: -03° c.
Visibility: 10 km or more,
No clouds below 1,500 m.
No cumulonimbus, and no significant weather
fenomena in the aerodrome or its vicinity.

EPZG 051500Z 18006KT CAVOK 02/M03 Q1019


Wind From 180°
Speed 06 kn.

 
 
jpsmedia worldairports.se 2019   terms of use